sensor_id;sensor_type;location;lat;lon;timestamp;P1;durP1;ratioP1;P2;durP2;ratioP2
13672;SDS011;6909;52.202;9.876;2023-04-25T00:00:02;4.00;;;0.70;;
13672;SDS011;6909;52.202;9.876;2023-04-25T00:02:33;1.57;;;0.80;;
13672;SDS011;6909;52.202;9.876;2023-04-25T00:05:00;3.80;;;1.20;;
13672;SDS011;6909;52.202;9.876;2023-04-25T00:07:26;1.23;;;0.90;;
13672;SDS011;6909;52.202;9.876;2023-04-25T00:09:53;2.07;;;1.07;;
13672;SDS011;6909;52.202;9.876;2023-04-25T00:12:20;2.20;;;1.33;;
13672;SDS011;6909;52.202;9.876;2023-04-25T00:14:47;1.00;;;0.97;;
13672;SDS011;6909;52.202;9.876;2023-04-25T00:17:16;1.67;;;1.30;;
13672;SDS011;6909;52.202;9.876;2023-04-25T00:19:45;0.73;;;0.70;;
13672;SDS011;6909;52.202;9.876;2023-04-25T00:22:12;1.27;;;0.77;;
13672;SDS011;6909;52.202;9.876;2023-04-25T00:24:39;1.30;;;0.90;;
13672;SDS011;6909;52.202;9.876;2023-04-25T00:27:05;0.87;;;0.63;;
13672;SDS011;6909;52.202;9.876;2023-04-25T00:29:32;5.17;;;1.27;;
13672;SDS011;6909;52.202;9.876;2023-04-25T00:31:59;5.53;;;1.17;;
13672;SDS011;6909;52.202;9.876;2023-04-25T00:34:25;1.00;;;1.00;;
13672;SDS011;6909;52.202;9.876;2023-04-25T00:36:53;1.13;;;1.00;;
13672;SDS011;6909;52.202;9.876;2023-04-25T00:39:20;0.83;;;0.83;;
13672;SDS011;6909;52.202;9.876;2023-04-25T00:41:47;2.70;;;1.13;;
13672;SDS011;6909;52.202;9.876;2023-04-25T00:44:18;1.83;;;1.10;;
13672;SDS011;6909;52.202;9.876;2023-04-25T00:46:44;1.33;;;0.83;;
13672;SDS011;6909;52.202;9.876;2023-04-25T00:49:13;3.13;;;1.23;;
13672;SDS011;6909;52.202;9.876;2023-04-25T00:51:41;1.03;;;0.90;;
13672;SDS011;6909;52.202;9.876;2023-04-25T00:54:10;0.77;;;0.77;;
13672;SDS011;6909;52.202;9.876;2023-04-25T00:56:37;1.50;;;0.80;;
13672;SDS011;6909;52.202;9.876;2023-04-25T00:59:04;1.10;;;1.00;;
13672;SDS011;6909;52.202;9.876;2023-04-25T01:01:31;1.77;;;1.17;;
13672;SDS011;6909;52.202;9.876;2023-04-25T01:03:58;4.00;;;2.17;;
13672;SDS011;6909;52.202;9.876;2023-04-25T01:06:26;1.03;;;0.80;;
13672;SDS011;6909;52.202;9.876;2023-04-25T01:08:53;3.53;;;1.50;;
13672;SDS011;6909;52.202;9.876;2023-04-25T01:11:22;2.13;;;1.47;;
13672;SDS011;6909;52.202;9.876;2023-04-25T01:13:48;3.77;;;0.93;;
13672;SDS011;6909;52.202;9.876;2023-04-25T01:16:15;1.77;;;1.17;;
13672;SDS011;6909;52.202;9.876;2023-04-25T01:18:42;2.07;;;1.57;;
13672;SDS011;6909;52.202;9.876;2023-04-25T01:21:11;2.23;;;1.50;;
13672;SDS011;6909;52.202;9.876;2023-04-25T01:23:39;6.53;;;1.90;;
13672;SDS011;6909;52.202;9.876;2023-04-25T01:26:06;1.63;;;1.17;;
13672;SDS011;6909;52.202;9.876;2023-04-25T01:28:35;2.13;;;1.70;;
13672;SDS011;6909;52.202;9.876;2023-04-25T01:31:09;1.33;;;1.23;;
13672;SDS011;6909;52.202;9.876;2023-04-25T01:33:40;1.37;;;1.27;;
13672;SDS011;6909;52.202;9.876;2023-04-25T01:36:07;1.57;;;1.47;;
13672;SDS011;6909;52.202;9.876;2023-04-25T01:38:36;1.93;;;1.70;;
13672;SDS011;6909;52.202;9.876;2023-04-25T01:41:03;2.97;;;1.13;;
13672;SDS011;6909;52.202;9.876;2023-04-25T01:43:29;1.40;;;1.30;;
13672;SDS011;6909;52.202;9.876;2023-04-25T01:45:56;1.83;;;1.50;;
13672;SDS011;6909;52.202;9.876;2023-04-25T01:48:23;3.13;;;1.37;;
13672;SDS011;6909;52.202;9.876;2023-04-25T01:50:50;2.37;;;1.83;;
13672;SDS011;6909;52.202;9.876;2023-04-25T01:53:17;1.53;;;1.37;;
13672;SDS011;6909;52.202;9.876;2023-04-25T01:55:45;2.90;;;2.10;;
13672;SDS011;6909;52.202;9.876;2023-04-25T01:58:11;2.10;;;1.60;;
13672;SDS011;6909;52.202;9.876;2023-04-25T02:00:38;1.60;;;1.40;;
13672;SDS011;6909;52.202;9.876;2023-04-25T02:03:06;9.90;;;1.47;;
13672;SDS011;6909;52.202;9.876;2023-04-25T02:05:36;3.43;;;1.53;;
13672;SDS011;6909;52.202;9.876;2023-04-25T02:08:04;2.37;;;1.97;;
13672;SDS011;6909;52.202;9.876;2023-04-25T02:10:31;1.73;;;1.63;;
13672;SDS011;6909;52.202;9.876;2023-04-25T02:13:00;2.70;;;1.70;;
13672;SDS011;6909;52.202;9.876;2023-04-25T02:15:27;2.33;;;2.03;;
13672;SDS011;6909;52.202;9.876;2023-04-25T02:17:53;1.67;;;1.47;;
13672;SDS011;6909;52.202;9.876;2023-04-25T02:20:21;7.03;;;2.07;;
13672;SDS011;6909;52.202;9.876;2023-04-25T02:22:48;1.60;;;1.00;;
13672;SDS011;6909;52.202;9.876;2023-04-25T02:25:15;6.33;;;2.60;;
13672;SDS011;6909;52.202;9.876;2023-04-25T02:27:42;2.47;;;1.90;;
13672;SDS011;6909;52.202;9.876;2023-04-25T02:30:11;1.47;;;1.37;;
13672;SDS011;6909;52.202;9.876;2023-04-25T02:32:38;2.40;;;1.77;;
13672;SDS011;6909;52.202;9.876;2023-04-25T02:35:05;2.73;;;1.63;;
13672;SDS011;6909;52.202;9.876;2023-04-25T02:37:32;1.67;;;0.90;;
13672;SDS011;6909;52.202;9.876;2023-04-25T02:40:00;1.03;;;1.00;;
13672;SDS011;6909;52.202;9.876;2023-04-25T02:42:29;1.73;;;1.23;;
13672;SDS011;6909;52.202;9.876;2023-04-25T02:44:56;2.80;;;1.77;;
13672;SDS011;6909;52.202;9.876;2023-04-25T02:47:24;3.07;;;2.00;;
13672;SDS011;6909;52.202;9.876;2023-04-25T02:49:50;1.20;;;1.10;;
13672;SDS011;6909;52.202;9.876;2023-04-25T02:52:17;3.57;;;1.43;;
13672;SDS011;6909;52.202;9.876;2023-04-25T02:54:44;2.17;;;1.13;;
13672;SDS011;6909;52.202;9.876;2023-04-25T02:57:10;1.80;;;1.70;;
13672;SDS011;6909;52.202;9.876;2023-04-25T02:59:37;2.17;;;1.10;;
13672;SDS011;6909;52.202;9.876;2023-04-25T03:02:04;2.00;;;1.63;;
13672;SDS011;6909;52.202;9.876;2023-04-25T03:04:32;1.10;;;0.83;;
13672;SDS011;6909;52.202;9.876;2023-04-25T03:06:59;1.37;;;0.67;;
13672;SDS011;6909;52.202;9.876;2023-04-25T03:09:26;0.80;;;0.80;;
13672;SDS011;6909;52.202;9.876;2023-04-25T03:11:52;3.63;;;1.10;;
13672;SDS011;6909;52.202;9.876;2023-04-25T03:14:19;0.80;;;0.80;;
13672;SDS011;6909;52.202;9.876;2023-04-25T03:16:45;1.07;;;0.90;;
13672;SDS011;6909;52.202;9.876;2023-04-25T03:19:12;0.73;;;0.70;;
13672;SDS011;6909;52.202;9.876;2023-04-25T03:21:42;1.47;;;0.80;;
13672;SDS011;6909;52.202;9.876;2023-04-25T03:24:09;0.47;;;0.47;;
13672;SDS011;6909;52.202;9.876;2023-04-25T03:26:36;2.60;;;1.00;;
13672;SDS011;6909;52.202;9.876;2023-04-25T03:29:02;2.00;;;0.83;;
13672;SDS011;6909;52.202;9.876;2023-04-25T03:31:29;0.90;;;0.90;;
13672;SDS011;6909;52.202;9.876;2023-04-25T03:33:56;0.57;;;0.47;;
13672;SDS011;6909;52.202;9.876;2023-04-25T03:36:23;1.53;;;1.07;;
13672;SDS011;6909;52.202;9.876;2023-04-25T03:38:51;1.53;;;1.23;;
13672;SDS011;6909;52.202;9.876;2023-04-25T03:41:17;0.87;;;0.87;;
13672;SDS011;6909;52.202;9.876;2023-04-25T03:43:45;4.33;;;0.70;;
13672;SDS011;6909;52.202;9.876;2023-04-25T03:46:11;0.83;;;0.83;;
13672;SDS011;6909;52.202;9.876;2023-04-25T03:48:38;0.87;;;0.80;;
13672;SDS011;6909;52.202;9.876;2023-04-25T03:51:05;2.93;;;1.77;;
13672;SDS011;6909;52.202;9.876;2023-04-25T03:53:31;1.13;;;0.70;;
13672;SDS011;6909;52.202;9.876;2023-04-25T03:55:59;0.80;;;0.80;;
13672;SDS011;6909;52.202;9.876;2023-04-25T03:58:26;0.93;;;0.80;;
13672;SDS011;6909;52.202;9.876;2023-04-25T04:00:52;3.47;;;1.07;;
13672;SDS011;6909;52.202;9.876;2023-04-25T04:03:19;4.63;;;1.57;;
13672;SDS011;6909;52.202;9.876;2023-04-25T04:05:46;0.90;;;0.80;;
13672;SDS011;6909;52.202;9.876;2023-04-25T04:08:12;1.57;;;0.93;;
13672;SDS011;6909;52.202;9.876;2023-04-25T04:10:39;0.53;;;0.53;;
13672;SDS011;6909;52.202;9.876;2023-04-25T04:13:07;1.33;;;0.63;;
13672;SDS011;6909;52.202;9.876;2023-04-25T04:15:34;2.40;;;1.00;;
13672;SDS011;6909;52.202;9.876;2023-04-25T04:18:00;1.80;;;1.13;;
13672;SDS011;6909;52.202;9.876;2023-04-25T04:20:28;1.97;;;0.83;;
13672;SDS011;6909;52.202;9.876;2023-04-25T04:22:55;6.40;;;0.67;;
13672;SDS011;6909;52.202;9.876;2023-04-25T04:25:22;5.00;;;1.43;;
13672;SDS011;6909;52.202;9.876;2023-04-25T04:27:49;2.07;;;1.13;;
13672;SDS011;6909;52.202;9.876;2023-04-25T04:30:18;0.60;;;0.60;;
13672;SDS011;6909;52.202;9.876;2023-04-25T04:32:45;1.27;;;0.50;;
13672;SDS011;6909;52.202;9.876;2023-04-25T04:35:11;4.93;;;1.50;;
13672;SDS011;6909;52.202;9.876;2023-04-25T04:37:38;2.60;;;1.23;;
13672;SDS011;6909;52.202;9.876;2023-04-25T04:40:05;1.30;;;0.60;;
13672;SDS011;6909;52.202;9.876;2023-04-25T04:42:34;3.67;;;1.17;;
13672;SDS011;6909;52.202;9.876;2023-04-25T04:45:01;6.83;;;1.60;;
13672;SDS011;6909;52.202;9.876;2023-04-25T04:47:30;1.70;;;1.10;;
13672;SDS011;6909;52.202;9.876;2023-04-25T04:49:57;0.80;;;0.80;;
13672;SDS011;6909;52.202;9.876;2023-04-25T04:52:24;1.83;;;1.17;;
13672;SDS011;6909;52.202;9.876;2023-04-25T04:54:50;2.20;;;1.27;;
13672;SDS011;6909;52.202;9.876;2023-04-25T04:57:17;3.57;;;0.87;;
13672;SDS011;6909;52.202;9.876;2023-04-25T04:59:44;0.80;;;0.80;;
13672;SDS011;6909;52.202;9.876;2023-04-25T05:02:10;0.67;;;0.67;;
13672;SDS011;6909;52.202;9.876;2023-04-25T05:04:38;0.90;;;0.50;;
13672;SDS011;6909;52.202;9.876;2023-04-25T05:07:05;0.80;;;0.47;;
13672;SDS011;6909;52.202;9.876;2023-04-25T05:09:32;1.70;;;0.80;;
13672;SDS011;6909;52.202;9.876;2023-04-25T05:11:58;1.80;;;0.90;;
13672;SDS011;6909;52.202;9.876;2023-04-25T05:14:25;0.93;;;0.63;;
13672;SDS011;6909;52.202;9.876;2023-04-25T05:16:52;1.27;;;0.60;;
13672;SDS011;6909;52.202;9.876;2023-04-25T05:19:19;2.73;;;1.47;;
13672;SDS011;6909;52.202;9.876;2023-04-25T05:21:47;3.03;;;0.90;;
13672;SDS011;6909;52.202;9.876;2023-04-25T05:24:14;1.03;;;0.83;;
13672;SDS011;6909;52.202;9.876;2023-04-25T05:26:40;1.60;;;0.60;;
13672;SDS011;6909;52.202;9.876;2023-04-25T05:29:07;3.60;;;1.10;;
13672;SDS011;6909;52.202;9.876;2023-04-25T05:31:35;1.10;;;1.00;;
13672;SDS011;6909;52.202;9.876;2023-04-25T05:34:02;1.77;;;0.70;;
13672;SDS011;6909;52.202;9.876;2023-04-25T05:36:29;1.37;;;0.73;;
13672;SDS011;6909;52.202;9.876;2023-04-25T05:38:58;0.63;;;0.50;;
13672;SDS011;6909;52.202;9.876;2023-04-25T05:41:25;1.20;;;1.00;;
13672;SDS011;6909;52.202;9.876;2023-04-25T05:43:51;8.37;;;1.20;;
13672;SDS011;6909;52.202;9.876;2023-04-25T05:46:18;5.03;;;1.13;;
13672;SDS011;6909;52.202;9.876;2023-04-25T05:48:45;2.17;;;1.20;;
13672;SDS011;6909;52.202;9.876;2023-04-25T05:51:12;1.77;;;0.83;;
13672;SDS011;6909;52.202;9.876;2023-04-25T05:53:38;7.90;;;1.60;;
13672;SDS011;6909;52.202;9.876;2023-04-25T05:56:06;2.63;;;1.43;;
13672;SDS011;6909;52.202;9.876;2023-04-25T05:58:33;4.27;;;1.80;;
13672;SDS011;6909;52.202;9.876;2023-04-25T06:01:00;6.90;;;1.70;;
13672;SDS011;6909;52.202;9.876;2023-04-25T06:03:27;2.17;;;1.23;;
13672;SDS011;6909;52.202;9.876;2023-04-25T06:05:55;2.73;;;0.97;;
13672;SDS011;6909;52.202;9.876;2023-04-25T06:08:21;3.50;;;1.10;;
13672;SDS011;6909;52.202;9.876;2023-04-25T06:10:48;2.37;;;1.40;;
13672;SDS011;6909;52.202;9.876;2023-04-25T06:13:16;9.40;;;1.13;;
13672;SDS011;6909;52.202;9.876;2023-04-25T06:15:42;3.33;;;1.20;;
13672;SDS011;6909;52.202;9.876;2023-04-25T06:18:09;2.57;;;0.93;;
13672;SDS011;6909;52.202;9.876;2023-04-25T06:20:36;5.63;;;0.90;;
13672;SDS011;6909;52.202;9.876;2023-04-25T06:23:03;1.67;;;0.70;;
13672;SDS011;6909;52.202;9.876;2023-04-25T06:25:29;1.43;;;1.33;;
13672;SDS011;6909;52.202;9.876;2023-04-25T06:27:56;0.57;;;0.50;;
13672;SDS011;6909;52.202;9.876;2023-04-25T06:30:24;0.60;;;0.60;;
13672;SDS011;6909;52.202;9.876;2023-04-25T06:32:51;2.40;;;0.67;;
13672;SDS011;6909;52.202;9.876;2023-04-25T06:35:18;6.13;;;0.90;;
13672;SDS011;6909;52.202;9.876;2023-04-25T06:37:45;0.40;;;0.40;;
13672;SDS011;6909;52.202;9.876;2023-04-25T06:40:11;1.63;;;0.47;;
13672;SDS011;6909;52.202;9.876;2023-04-25T06:42:38;0.93;;;0.60;;
13672;SDS011;6909;52.202;9.876;2023-04-25T06:45:05;4.27;;;0.73;;
13672;SDS011;6909;52.202;9.876;2023-04-25T06:47:34;3.37;;;0.87;;
13672;SDS011;6909;52.202;9.876;2023-04-25T06:50:00;11.77;;;1.43;;
13672;SDS011;6909;52.202;9.876;2023-04-25T06:52:28;11.40;;;1.63;;
13672;SDS011;6909;52.202;9.876;2023-04-25T06:54:54;4.63;;;0.77;;
13672;SDS011;6909;52.202;9.876;2023-04-25T06:57:22;4.83;;;1.53;;
13672;SDS011;6909;52.202;9.876;2023-04-25T06:59:49;2.17;;;1.00;;
13672;SDS011;6909;52.202;9.876;2023-04-25T07:02:15;1.33;;;0.93;;
13672;SDS011;6909;52.202;9.876;2023-04-25T07:04:43;4.93;;;1.77;;
13672;SDS011;6909;52.202;9.876;2023-04-25T07:07:11;4.63;;;1.80;;
13672;SDS011;6909;52.202;9.876;2023-04-25T07:09:37;2.07;;;1.23;;
13672;SDS011;6909;52.202;9.876;2023-04-25T07:12:04;1.70;;;1.10;;
13672;SDS011;6909;52.202;9.876;2023-04-25T07:14:31;2.10;;;0.97;;
13672;SDS011;6909;52.202;9.876;2023-04-25T07:16:58;4.83;;;1.77;;
13672;SDS011;6909;52.202;9.876;2023-04-25T07:19:24;1.83;;;0.90;;
13672;SDS011;6909;52.202;9.876;2023-04-25T07:21:53;2.80;;;1.10;;
13672;SDS011;6909;52.202;9.876;2023-04-25T07:24:19;3.77;;;0.90;;
13672;SDS011;6909;52.202;9.876;2023-04-25T07:26:46;2.63;;;1.13;;
13672;SDS011;6909;52.202;9.876;2023-04-25T07:29:13;3.13;;;0.93;;
13672;SDS011;6909;52.202;9.876;2023-04-25T07:31:39;4.07;;;1.30;;
13672;SDS011;6909;52.202;9.876;2023-04-25T07:34:06;2.83;;;0.73;;
13672;SDS011;6909;52.202;9.876;2023-04-25T07:36:33;4.20;;;0.87;;
13672;SDS011;6909;52.202;9.876;2023-04-25T07:39:01;3.47;;;0.57;;
13672;SDS011;6909;52.202;9.876;2023-04-25T07:41:28;2.50;;;0.50;;
13672;SDS011;6909;52.202;9.876;2023-04-25T07:43:54;2.43;;;0.60;;
13672;SDS011;6909;52.202;9.876;2023-04-25T07:46:21;2.13;;;1.00;;
13672;SDS011;6909;52.202;9.876;2023-04-25T07:48:48;1.00;;;0.63;;
13672;SDS011;6909;52.202;9.876;2023-04-25T07:51:14;2.40;;;0.60;;
13672;SDS011;6909;52.202;9.876;2023-04-25T07:53:41;2.50;;;0.70;;
13672;SDS011;6909;52.202;9.876;2023-04-25T07:56:09;5.23;;;0.80;;
13672;SDS011;6909;52.202;9.876;2023-04-25T07:58:36;7.03;;;1.00;;
13672;SDS011;6909;52.202;9.876;2023-04-25T08:01:03;12.17;;;1.97;;
13672;SDS011;6909;52.202;9.876;2023-04-25T08:03:30;4.23;;;1.20;;
13672;SDS011;6909;52.202;9.876;2023-04-25T08:05:56;1.07;;;0.60;;
13672;SDS011;6909;52.202;9.876;2023-04-25T08:08:23;3.03;;;0.90;;
13672;SDS011;6909;52.202;9.876;2023-04-25T08:10:50;0.73;;;0.40;;
13672;SDS011;6909;52.202;9.876;2023-04-25T08:13:18;2.43;;;0.30;;
13672;SDS011;6909;52.202;9.876;2023-04-25T08:15:45;2.83;;;0.87;;
13672;SDS011;6909;52.202;9.876;2023-04-25T08:18:11;2.50;;;1.13;;
13672;SDS011;6909;52.202;9.876;2023-04-25T08:20:38;3.40;;;0.93;;
13672;SDS011;6909;52.202;9.876;2023-04-25T08:23:05;0.60;;;0.40;;
13672;SDS011;6909;52.202;9.876;2023-04-25T08:25:32;2.03;;;1.27;;
13672;SDS011;6909;52.202;9.876;2023-04-25T08:27:59;3.20;;;1.27;;
13672;SDS011;6909;52.202;9.876;2023-04-25T08:30:29;3.80;;;0.80;;
13672;SDS011;6909;52.202;9.876;2023-04-25T08:32:56;2.03;;;0.50;;
13672;SDS011;6909;52.202;9.876;2023-04-25T08:35:22;1.57;;;0.50;;
13672;SDS011;6909;52.202;9.876;2023-04-25T08:37:49;4.10;;;0.70;;
13672;SDS011;6909;52.202;9.876;2023-04-25T08:40:16;3.90;;;0.70;;
13672;SDS011;6909;52.202;9.876;2023-04-25T08:42:43;4.10;;;0.93;;
13672;SDS011;6909;52.202;9.876;2023-04-25T08:45:10;2.23;;;0.60;;
13672;SDS011;6909;52.202;9.876;2023-04-25T08:47:38;4.03;;;0.90;;
13672;SDS011;6909;52.202;9.876;2023-04-25T08:50:06;0.40;;;0.40;;
13672;SDS011;6909;52.202;9.876;2023-04-25T08:52:35;1.13;;;0.63;;
13672;SDS011;6909;52.202;9.876;2023-04-25T08:55:03;1.07;;;0.50;;
13672;SDS011;6909;52.202;9.876;2023-04-25T08:57:33;3.10;;;1.10;;
13672;SDS011;6909;52.202;9.876;2023-04-25T09:00:00;1.30;;;0.53;;
13672;SDS011;6909;52.202;9.876;2023-04-25T09:02:27;2.40;;;1.33;;
13672;SDS011;6909;52.202;9.876;2023-04-25T09:04:56;2.97;;;0.80;;
13672;SDS011;6909;52.202;9.876;2023-04-25T09:07:23;1.53;;;0.50;;
13672;SDS011;6909;52.202;9.876;2023-04-25T09:09:50;0.93;;;0.57;;
13672;SDS011;6909;52.202;9.876;2023-04-25T09:12:18;1.57;;;0.60;;
13672;SDS011;6909;52.202;9.876;2023-04-25T09:14:53;1.87;;;0.50;;
13672;SDS011;6909;52.202;9.876;2023-04-25T09:17:29;3.13;;;0.80;;
13672;SDS011;6909;52.202;9.876;2023-04-25T09:19:57;1.93;;;0.80;;
13672;SDS011;6909;52.202;9.876;2023-04-25T09:22:32;5.50;;;1.27;;
13672;SDS011;6909;52.202;9.876;2023-04-25T09:24:58;6.43;;;1.00;;
13672;SDS011;6909;52.202;9.876;2023-04-25T09:27:28;3.80;;;1.00;;
13672;SDS011;6909;52.202;9.876;2023-04-25T09:29:56;2.40;;;0.80;;
13672;SDS011;6909;52.202;9.876;2023-04-25T09:32:25;2.67;;;0.60;;
13672;SDS011;6909;52.202;9.876;2023-04-25T09:34:52;2.80;;;0.30;;
13672;SDS011;6909;52.202;9.876;2023-04-25T09:37:21;2.50;;;0.93;;
13672;SDS011;6909;52.202;9.876;2023-04-25T09:39:49;1.67;;;0.80;;
13672;SDS011;6909;52.202;9.876;2023-04-25T09:42:17;0.50;;;0.30;;
13672;SDS011;6909;52.202;9.876;2023-04-25T09:44:44;3.13;;;0.70;;
13672;SDS011;6909;52.202;9.876;2023-04-25T09:47:12;0.33;;;0.30;;
13672;SDS011;6909;52.202;9.876;2023-04-25T09:49:40;2.33;;;1.13;;
13672;SDS011;6909;52.202;9.876;2023-04-25T09:52:08;1.10;;;0.73;;
13672;SDS011;6909;52.202;9.876;2023-04-25T09:54:36;0.30;;;0.30;;
13672;SDS011;6909;52.202;9.876;2023-04-25T09:57:11;2.70;;;0.90;;
13672;SDS011;6909;52.202;9.876;2023-04-25T09:59:42;2.03;;;0.50;;
13672;SDS011;6909;52.202;9.876;2023-04-25T10:02:09;2.70;;;0.47;;
13672;SDS011;6909;52.202;9.876;2023-04-25T10:04:37;0.87;;;0.60;;
13672;SDS011;6909;52.202;9.876;2023-04-25T10:07:05;1.60;;;0.57;;
13672;SDS011;6909;52.202;9.876;2023-04-25T10:09:33;2.73;;;1.13;;
13672;SDS011;6909;52.202;9.876;2023-04-25T10:12:03;0.93;;;0.30;;
13672;SDS011;6909;52.202;9.876;2023-04-25T10:14:31;1.00;;;0.50;;
13672;SDS011;6909;52.202;9.876;2023-04-25T10:16:58;0.20;;;0.20;;
13672;SDS011;6909;52.202;9.876;2023-04-25T10:19:25;0.33;;;0.33;;
13672;SDS011;6909;52.202;9.876;2023-04-25T10:21:52;1.40;;;0.60;;
13672;SDS011;6909;52.202;9.876;2023-04-25T10:24:23;1.07;;;0.40;;
13672;SDS011;6909;52.202;9.876;2023-04-25T10:26:51;5.10;;;0.73;;
13672;SDS011;6909;52.202;9.876;2023-04-25T10:29:22;3.10;;;0.50;;
13672;SDS011;6909;52.202;9.876;2023-04-25T10:31:50;0.80;;;0.53;;
13672;SDS011;6909;52.202;9.876;2023-04-25T10:34:17;1.10;;;0.60;;
13672;SDS011;6909;52.202;9.876;2023-04-25T10:36:48;4.27;;;1.07;;
13672;SDS011;6909;52.202;9.876;2023-04-25T10:39:21;4.17;;;0.70;;
13672;SDS011;6909;52.202;9.876;2023-04-25T10:41:52;2.63;;;0.40;;
13672;SDS011;6909;52.202;9.876;2023-04-25T10:44:22;0.73;;;0.50;;
13672;SDS011;6909;52.202;9.876;2023-04-25T10:46:52;0.73;;;0.30;;
13672;SDS011;6909;52.202;9.876;2023-04-25T10:49:29;1.53;;;0.40;;
13672;SDS011;6909;52.202;9.876;2023-04-25T10:52:16;0.50;;;0.50;;
13672;SDS011;6909;52.202;9.876;2023-04-25T10:54:47;2.00;;;0.40;;
13672;SDS011;6909;52.202;9.876;2023-04-25T10:57:26;0.80;;;0.43;;
13672;SDS011;6909;52.202;9.876;2023-04-25T10:59:55;1.80;;;0.67;;
13672;SDS011;6909;52.202;9.876;2023-04-25T11:02:26;0.80;;;0.40;;
13672;SDS011;6909;52.202;9.876;2023-04-25T11:04:53;3.43;;;0.73;;
13672;SDS011;6909;52.202;9.876;2023-04-25T11:07:23;1.10;;;0.60;;
13672;SDS011;6909;52.202;9.876;2023-04-25T11:09:57;0.83;;;0.50;;
13672;SDS011;6909;52.202;9.876;2023-04-25T11:12:26;0.37;;;0.33;;
13672;SDS011;6909;52.202;9.876;2023-04-25T11:14:59;1.80;;;0.50;;
13672;SDS011;6909;52.202;9.876;2023-04-25T11:17:27;4.63;;;0.87;;
13672;SDS011;6909;52.202;9.876;2023-04-25T11:19:54;3.30;;;0.93;;
13672;SDS011;6909;52.202;9.876;2023-04-25T11:22:21;1.17;;;0.60;;
13672;SDS011;6909;52.202;9.876;2023-04-25T11:24:49;2.33;;;0.90;;
13672;SDS011;6909;52.202;9.876;2023-04-25T11:27:15;1.60;;;0.50;;
13672;SDS011;6909;52.202;9.876;2023-04-25T11:29:42;1.03;;;0.57;;
13672;SDS011;6909;52.202;9.876;2023-04-25T11:32:10;0.70;;;0.37;;
13672;SDS011;6909;52.202;9.876;2023-04-25T11:34:37;4.77;;;1.10;;
13672;SDS011;6909;52.202;9.876;2023-04-25T11:37:03;3.27;;;0.60;;
13672;SDS011;6909;52.202;9.876;2023-04-25T11:39:31;4.73;;;1.43;;
13672;SDS011;6909;52.202;9.876;2023-04-25T11:41:58;0.97;;;0.70;;
13672;SDS011;6909;52.202;9.876;2023-04-25T11:44:26;3.40;;;0.63;;
13672;SDS011;6909;52.202;9.876;2023-04-25T11:46:54;0.60;;;0.60;;
13672;SDS011;6909;52.202;9.876;2023-04-25T11:49:22;0.77;;;0.40;;
13672;SDS011;6909;52.202;9.876;2023-04-25T11:51:50;1.80;;;0.50;;
13672;SDS011;6909;52.202;9.876;2023-04-25T11:54:16;1.33;;;0.63;;
13672;SDS011;6909;52.202;9.876;2023-04-25T11:56:43;2.30;;;0.47;;
13672;SDS011;6909;52.202;9.876;2023-04-25T11:59:11;1.30;;;0.60;;
13672;SDS011;6909;52.202;9.876;2023-04-25T12:01:38;0.40;;;0.30;;
13672;SDS011;6909;52.202;9.876;2023-04-25T12:04:13;0.30;;;0.30;;
13672;SDS011;6909;52.202;9.876;2023-04-25T12:06:43;0.57;;;0.50;;
13672;SDS011;6909;52.202;9.876;2023-04-25T12:09:14;1.10;;;0.60;;
13672;SDS011;6909;52.202;9.876;2023-04-25T12:11:43;1.23;;;0.83;;
13672;SDS011;6909;52.202;9.876;2023-04-25T12:14:10;1.70;;;0.53;;
13672;SDS011;6909;52.202;9.876;2023-04-25T12:16:41;1.00;;;0.30;;
13672;SDS011;6909;52.202;9.876;2023-04-25T12:19:08;2.20;;;0.70;;
13672;SDS011;6909;52.202;9.876;2023-04-25T12:21:35;2.03;;;0.43;;
13672;SDS011;6909;52.202;9.876;2023-04-25T12:24:10;1.60;;;0.60;;
13672;SDS011;6909;52.202;9.876;2023-04-25T12:26:45;0.40;;;0.40;;
13672;SDS011;6909;52.202;9.876;2023-04-25T12:29:15;2.67;;;0.90;;
13672;SDS011;6909;52.202;9.876;2023-04-25T12:31:42;1.83;;;0.53;;
13672;SDS011;6909;52.202;9.876;2023-04-25T12:34:09;0.70;;;0.70;;
13672;SDS011;6909;52.202;9.876;2023-04-25T12:36:36;0.70;;;0.70;;
13672;SDS011;6909;52.202;9.876;2023-04-25T12:39:03;1.47;;;0.60;;
13672;SDS011;6909;52.202;9.876;2023-04-25T12:41:31;1.00;;;0.33;;
13672;SDS011;6909;52.202;9.876;2023-04-25T12:43:58;0.40;;;0.30;;
13672;SDS011;6909;52.202;9.876;2023-04-25T12:46:25;0.60;;;0.40;;
13672;SDS011;6909;52.202;9.876;2023-04-25T12:48:52;2.93;;;0.30;;
13672;SDS011;6909;52.202;9.876;2023-04-25T12:51:20;1.30;;;0.40;;
13672;SDS011;6909;52.202;9.876;2023-04-25T12:53:49;0.33;;;0.30;;
13672;SDS011;6909;52.202;9.876;2023-04-25T12:56:16;0.87;;;0.13;;
13672;SDS011;6909;52.202;9.876;2023-04-25T12:58:44;0.20;;;0.20;;
13672;SDS011;6909;52.202;9.876;2023-04-25T13:01:13;2.47;;;0.60;;
13672;SDS011;6909;52.202;9.876;2023-04-25T13:03:39;1.23;;;0.30;;
13672;SDS011;6909;52.202;9.876;2023-04-25T13:06:06;2.43;;;0.40;;
13672;SDS011;6909;52.202;9.876;2023-04-25T13:08:33;2.33;;;0.23;;
13672;SDS011;6909;52.202;9.876;2023-04-25T13:11:01;1.63;;;0.70;;
13672;SDS011;6909;52.202;9.876;2023-04-25T13:13:28;0.33;;;0.20;;
13672;SDS011;6909;52.202;9.876;2023-04-25T13:15:57;0.30;;;0.30;;
13672;SDS011;6909;52.202;9.876;2023-04-25T13:18:24;2.77;;;0.40;;
13672;SDS011;6909;52.202;9.876;2023-04-25T13:20:51;0.63;;;0.40;;
13672;SDS011;6909;52.202;9.876;2023-04-25T13:23:18;0.47;;;0.30;;
13672;SDS011;6909;52.202;9.876;2023-04-25T13:25:46;4.47;;;1.40;;
13672;SDS011;6909;52.202;9.876;2023-04-25T13:28:13;0.87;;;0.30;;
13672;SDS011;6909;52.202;9.876;2023-04-25T13:30:41;0.40;;;0.40;;
13672;SDS011;6909;52.202;9.876;2023-04-25T13:33:09;0.43;;;0.40;;
13672;SDS011;6909;52.202;9.876;2023-04-25T13:35:36;0.30;;;0.30;;
13672;SDS011;6909;52.202;9.876;2023-04-25T13:38:03;1.37;;;0.47;;
13672;SDS011;6909;52.202;9.876;2023-04-25T13:40:30;1.27;;;0.40;;
13672;SDS011;6909;52.202;9.876;2023-04-25T13:42:57;0.70;;;0.30;;
13672;SDS011;6909;52.202;9.876;2023-04-25T13:45:24;2.50;;;0.50;;
13672;SDS011;6909;52.202;9.876;2023-04-25T13:47:51;0.73;;;0.10;;
13672;SDS011;6909;52.202;9.876;2023-04-25T13:50:19;0.80;;;0.10;;
13672;SDS011;6909;52.202;9.876;2023-04-25T13:52:46;0.20;;;0.20;;
13672;SDS011;6909;52.202;9.876;2023-04-25T13:55:13;0.30;;;0.30;;
13672;SDS011;6909;52.202;9.876;2023-04-25T13:57:39;0.53;;;0.40;;
13672;SDS011;6909;52.202;9.876;2023-04-25T14:00:06;0.10;;;0.10;;
13672;SDS011;6909;52.202;9.876;2023-04-25T14:02:35;0.27;;;0.27;;
13672;SDS011;6909;52.202;9.876;2023-04-25T14:05:02;0.40;;;0.40;;
13672;SDS011;6909;52.202;9.876;2023-04-25T14:07:30;0.73;;;0.30;;
13672;SDS011;6909;52.202;9.876;2023-04-25T14:09:57;0.77;;;0.60;;
13672;SDS011;6909;52.202;9.876;2023-04-25T14:12:24;0.40;;;0.40;;
13672;SDS011;6909;52.202;9.876;2023-04-25T14:14:51;0.87;;;0.40;;
13672;SDS011;6909;52.202;9.876;2023-04-25T14:17:18;1.03;;;0.43;;
13672;SDS011;6909;52.202;9.876;2023-04-25T14:19:45;1.67;;;0.40;;
13672;SDS011;6909;52.202;9.876;2023-04-25T14:22:13;1.70;;;0.30;;
13672;SDS011;6909;52.202;9.876;2023-04-25T14:24:41;1.93;;;0.30;;
13672;SDS011;6909;52.202;9.876;2023-04-25T14:27:07;2.03;;;0.60;;
13672;SDS011;6909;52.202;9.876;2023-04-25T14:29:35;0.40;;;0.40;;
13672;SDS011;6909;52.202;9.876;2023-04-25T14:32:02;1.07;;;0.37;;
13672;SDS011;6909;52.202;9.876;2023-04-25T14:34:30;5.17;;;0.27;;
13672;SDS011;6909;52.202;9.876;2023-04-25T14:36:56;1.17;;;0.30;;
13672;SDS011;6909;52.202;9.876;2023-04-25T14:39:23;0.40;;;0.20;;
13672;SDS011;6909;52.202;9.876;2023-04-25T14:41:51;0.63;;;0.33;;
13672;SDS011;6909;52.202;9.876;2023-04-25T14:44:18;0.73;;;0.30;;
13672;SDS011;6909;52.202;9.876;2023-04-25T14:46:45;0.53;;;0.47;;
13672;SDS011;6909;52.202;9.876;2023-04-25T14:49:11;1.77;;;0.40;;
13672;SDS011;6909;52.202;9.876;2023-04-25T14:51:38;0.77;;;0.60;;
13672;SDS011;6909;52.202;9.876;2023-04-25T14:54:05;1.40;;;0.30;;
13672;SDS011;6909;52.202;9.876;2023-04-25T14:56:32;1.33;;;0.40;;
13672;SDS011;6909;52.202;9.876;2023-04-25T14:59:01;0.30;;;0.30;;
13672;SDS011;6909;52.202;9.876;2023-04-25T15:01:27;0.63;;;0.40;;